sensor_id;sensor_type;location;lat;lon;timestamp;P1;durP1;ratioP1;P2;durP2;ratioP2
77214;SDS011;66210;53.282;9.864;2023-02-14T00:00:48;41.55;;;19.67;;
77214;SDS011;66210;53.282;9.864;2023-02-14T00:03:15;45.80;;;19.42;;
77214;SDS011;66210;53.282;9.864;2023-02-14T00:05:42;39.83;;;18.45;;
77214;SDS011;66210;53.282;9.864;2023-02-14T00:08:09;43.63;;;18.58;;
77214;SDS011;66210;53.282;9.864;2023-02-14T00:10:35;41.40;;;19.33;;
77214;SDS011;66210;53.282;9.864;2023-02-14T00:13:02;44.00;;;19.90;;
77214;SDS011;66210;53.282;9.864;2023-02-14T00:15:29;39.58;;;18.42;;
77214;SDS011;66210;53.282;9.864;2023-02-14T00:17:56;40.90;;;17.70;;
77214;SDS011;66210;53.282;9.864;2023-02-14T00:20:26;37.28;;;18.35;;
77214;SDS011;66210;53.282;9.864;2023-02-14T00:22:53;39.03;;;18.70;;
77214;SDS011;66210;53.282;9.864;2023-02-14T00:25:20;39.92;;;18.40;;
77214;SDS011;66210;53.282;9.864;2023-02-14T00:27:47;41.08;;;20.05;;
77214;SDS011;66210;53.282;9.864;2023-02-14T00:30:14;37.53;;;18.17;;
77214;SDS011;66210;53.282;9.864;2023-02-14T00:32:41;39.80;;;18.80;;
77214;SDS011;66210;53.282;9.864;2023-02-14T00:35:08;38.70;;;18.75;;
77214;SDS011;66210;53.282;9.864;2023-02-14T00:37:35;45.38;;;19.92;;
77214;SDS011;66210;53.282;9.864;2023-02-14T00:40:02;38.58;;;18.83;;
77214;SDS011;66210;53.282;9.864;2023-02-14T00:42:30;43.60;;;20.27;;
77214;SDS011;66210;53.282;9.864;2023-02-14T00:44:57;39.45;;;16.80;;
77214;SDS011;66210;53.282;9.864;2023-02-14T00:47:24;35.78;;;16.70;;
77214;SDS011;66210;53.282;9.864;2023-02-14T00:49:51;39.03;;;18.10;;
77214;SDS011;66210;53.282;9.864;2023-02-14T00:52:17;38.20;;;16.60;;
77214;SDS011;66210;53.282;9.864;2023-02-14T00:54:44;40.47;;;19.40;;
77214;SDS011;66210;53.282;9.864;2023-02-14T00:57:11;41.20;;;18.75;;
77214;SDS011;66210;53.282;9.864;2023-02-14T00:59:38;39.33;;;16.45;;
77214;SDS011;66210;53.282;9.864;2023-02-14T01:02:04;38.42;;;18.02;;
77214;SDS011;66210;53.282;9.864;2023-02-14T01:04:31;47.13;;;20.42;;
77214;SDS011;66210;53.282;9.864;2023-02-14T01:06:58;36.78;;;16.95;;
77214;SDS011;66210;53.282;9.864;2023-02-14T01:09:24;37.45;;;17.65;;
77214;SDS011;66210;53.282;9.864;2023-02-14T01:11:51;42.72;;;18.35;;
77214;SDS011;66210;53.282;9.864;2023-02-14T01:14:18;38.22;;;17.35;;
77214;SDS011;66210;53.282;9.864;2023-02-14T01:16:44;41.50;;;18.20;;
77214;SDS011;66210;53.282;9.864;2023-02-14T01:19:11;37.15;;;17.30;;
77214;SDS011;66210;53.282;9.864;2023-02-14T01:21:38;38.50;;;17.08;;
77214;SDS011;66210;53.282;9.864;2023-02-14T01:24:06;40.17;;;17.75;;
77214;SDS011;66210;53.282;9.864;2023-02-14T01:26:33;37.63;;;17.15;;
77214;SDS011;66210;53.282;9.864;2023-02-14T01:29:01;40.65;;;17.95;;
77214;SDS011;66210;53.282;9.864;2023-02-14T01:31:30;39.35;;;18.17;;
77214;SDS011;66210;53.282;9.864;2023-02-14T01:33:58;36.10;;;17.13;;
77214;SDS011;66210;53.282;9.864;2023-02-14T01:36:29;37.47;;;16.63;;
77214;SDS011;66210;53.282;9.864;2023-02-14T01:38:59;36.60;;;16.25;;
77214;SDS011;66210;53.282;9.864;2023-02-14T01:41:29;38.78;;;15.43;;
77214;SDS011;66210;53.282;9.864;2023-02-14T01:46:47;41.70;;;18.70;;
77214;SDS011;66210;53.282;9.864;2023-02-14T01:49:19;41.10;;;17.33;;
77214;SDS011;66210;53.282;9.864;2023-02-14T01:51:52;35.40;;;15.05;;
77214;SDS011;66210;53.282;9.864;2023-02-14T01:54:24;39.00;;;16.73;;
77214;SDS011;66210;53.282;9.864;2023-02-14T01:56:53;39.13;;;16.05;;
77214;SDS011;66210;53.282;9.864;2023-02-14T01:59:25;38.72;;;17.48;;
77214;SDS011;66210;53.282;9.864;2023-02-14T02:01:53;34.85;;;15.60;;
77214;SDS011;66210;53.282;9.864;2023-02-14T02:04:22;38.13;;;16.65;;
77214;SDS011;66210;53.282;9.864;2023-02-14T02:06:58;37.78;;;17.05;;
77214;SDS011;66210;53.282;9.864;2023-02-14T02:09:33;38.53;;;17.35;;
77214;SDS011;66210;53.282;9.864;2023-02-14T02:12:04;38.17;;;16.92;;
77214;SDS011;66210;53.282;9.864;2023-02-14T02:14:31;41.10;;;17.25;;
77214;SDS011;66210;53.282;9.864;2023-02-14T02:26:10;36.97;;;15.65;;
77214;SDS011;66210;53.282;9.864;2023-02-14T02:38:04;39.88;;;16.25;;
77214;SDS011;66210;53.282;9.864;2023-02-14T02:46:10;41.38;;;17.05;;
77214;SDS011;66210;53.282;9.864;2023-02-14T02:52:02;35.38;;;15.25;;
77214;SDS011;66210;53.282;9.864;2023-02-14T02:54:55;35.20;;;14.93;;
77214;SDS011;66210;53.282;9.864;2023-02-14T02:57:29;36.80;;;16.38;;
77214;SDS011;66210;53.282;9.864;2023-02-14T03:00:01;38.40;;;15.77;;
77214;SDS011;66210;53.282;9.864;2023-02-14T03:02:32;33.05;;;14.77;;
77214;SDS011;66210;53.282;9.864;2023-02-14T03:05:23;34.70;;;15.48;;
77214;SDS011;66210;53.282;9.864;2023-02-14T03:07:50;33.28;;;16.30;;
77214;SDS011;66210;53.282;9.864;2023-02-14T03:10:21;37.17;;;14.82;;
77214;SDS011;66210;53.282;9.864;2023-02-14T03:13:12;34.75;;;14.73;;
77214;SDS011;66210;53.282;9.864;2023-02-14T03:15:46;39.72;;;15.52;;
77214;SDS011;66210;53.282;9.864;2023-02-14T03:18:34;40.17;;;17.77;;
77214;SDS011;66210;53.282;9.864;2023-02-14T03:29:42;36.83;;;15.30;;
77214;SDS011;66210;53.282;9.864;2023-02-14T03:32:30;40.15;;;16.20;;
77214;SDS011;66210;53.282;9.864;2023-02-14T03:40:42;38.20;;;14.88;;
77214;SDS011;66210;53.282;9.864;2023-02-14T03:43:19;35.35;;;14.40;;
77214;SDS011;66210;53.282;9.864;2023-02-14T03:45:51;38.03;;;14.77;;
77214;SDS011;66210;53.282;9.864;2023-02-14T03:48:23;37.15;;;15.50;;
77214;SDS011;66210;53.282;9.864;2023-02-14T03:50:53;36.42;;;15.40;;
77214;SDS011;66210;53.282;9.864;2023-02-14T03:53:24;34.08;;;15.15;;
77214;SDS011;66210;53.282;9.864;2023-02-14T03:56:13;35.97;;;15.45;;
77214;SDS011;66210;53.282;9.864;2023-02-14T03:58:46;31.95;;;14.45;;
77214;SDS011;66210;53.282;9.864;2023-02-14T04:01:23;34.97;;;13.80;;
77214;SDS011;66210;53.282;9.864;2023-02-14T04:04:00;36.15;;;14.60;;
77214;SDS011;66210;53.282;9.864;2023-02-14T04:06:31;33.83;;;14.80;;
77214;SDS011;66210;53.282;9.864;2023-02-14T04:08:57;32.83;;;15.10;;
77214;SDS011;66210;53.282;9.864;2023-02-14T04:11:24;32.58;;;13.77;;
77214;SDS011;66210;53.282;9.864;2023-02-14T04:13:51;37.58;;;15.48;;
77214;SDS011;66210;53.282;9.864;2023-02-14T04:16:17;32.85;;;15.00;;
77214;SDS011;66210;53.282;9.864;2023-02-14T04:18:44;38.08;;;13.85;;
77214;SDS011;66210;53.282;9.864;2023-02-14T04:21:30;32.95;;;14.13;;
77214;SDS011;66210;53.282;9.864;2023-02-14T04:23:56;34.30;;;14.85;;
77214;SDS011;66210;53.282;9.864;2023-02-14T04:26:23;38.72;;;15.23;;
77214;SDS011;66210;53.282;9.864;2023-02-14T04:28:50;33.28;;;14.27;;
77214;SDS011;66210;53.282;9.864;2023-02-14T04:31:17;29.33;;;13.45;;
77214;SDS011;66210;53.282;9.864;2023-02-14T04:33:43;37.33;;;15.70;;
77214;SDS011;66210;53.282;9.864;2023-02-14T04:36:11;31.55;;;14.15;;
77214;SDS011;66210;53.282;9.864;2023-02-14T04:38:38;41.45;;;15.90;;
77214;SDS011;66210;53.282;9.864;2023-02-14T04:41:04;35.35;;;15.23;;
77214;SDS011;66210;53.282;9.864;2023-02-14T04:43:31;33.13;;;15.77;;
77214;SDS011;66210;53.282;9.864;2023-02-14T04:45:58;37.10;;;15.88;;
77214;SDS011;66210;53.282;9.864;2023-02-14T04:48:25;39.55;;;16.00;;
77214;SDS011;66210;53.282;9.864;2023-02-14T04:50:52;35.80;;;15.88;;
77214;SDS011;66210;53.282;9.864;2023-02-14T04:53:20;35.58;;;14.77;;
77214;SDS011;66210;53.282;9.864;2023-02-14T04:55:48;32.42;;;14.63;;
77214;SDS011;66210;53.282;9.864;2023-02-14T04:58:15;35.03;;;15.80;;
77214;SDS011;66210;53.282;9.864;2023-02-14T05:00:42;35.67;;;15.60;;
77214;SDS011;66210;53.282;9.864;2023-02-14T05:03:09;34.90;;;14.82;;
77214;SDS011;66210;53.282;9.864;2023-02-14T05:05:36;40.10;;;15.82;;
77214;SDS011;66210;53.282;9.864;2023-02-14T05:08:03;35.30;;;16.17;;
77214;SDS011;66210;53.282;9.864;2023-02-14T05:10:30;35.85;;;15.10;;
77214;SDS011;66210;53.282;9.864;2023-02-14T05:12:56;34.35;;;15.27;;
77214;SDS011;66210;53.282;9.864;2023-02-14T05:15:23;33.88;;;15.18;;
77214;SDS011;66210;53.282;9.864;2023-02-14T05:17:50;34.78;;;14.55;;
77214;SDS011;66210;53.282;9.864;2023-02-14T05:20:16;40.17;;;15.32;;
77214;SDS011;66210;53.282;9.864;2023-02-14T05:22:43;38.55;;;16.27;;
77214;SDS011;66210;53.282;9.864;2023-02-14T05:25:10;34.05;;;15.85;;
77214;SDS011;66210;53.282;9.864;2023-02-14T05:27:36;39.95;;;15.45;;
77214;SDS011;66210;53.282;9.864;2023-02-14T05:30:03;34.55;;;14.07;;
77214;SDS011;66210;53.282;9.864;2023-02-14T05:32:32;33.42;;;13.30;;
77214;SDS011;66210;53.282;9.864;2023-02-14T05:34:58;35.97;;;16.33;;
77214;SDS011;66210;53.282;9.864;2023-02-14T05:37:26;32.38;;;14.80;;
77214;SDS011;66210;53.282;9.864;2023-02-14T05:39:53;35.65;;;14.10;;
77214;SDS011;66210;53.282;9.864;2023-02-14T05:42:20;33.90;;;14.60;;
77214;SDS011;66210;53.282;9.864;2023-02-14T05:44:47;37.92;;;16.17;;
77214;SDS011;66210;53.282;9.864;2023-02-14T05:47:14;38.72;;;15.93;;
77214;SDS011;66210;53.282;9.864;2023-02-14T05:49:40;41.78;;;16.80;;
77214;SDS011;66210;53.282;9.864;2023-02-14T05:52:07;33.05;;;13.80;;
77214;SDS011;66210;53.282;9.864;2023-02-14T05:54:34;39.50;;;15.52;;
77214;SDS011;66210;53.282;9.864;2023-02-14T05:57:01;36.90;;;15.45;;
77214;SDS011;66210;53.282;9.864;2023-02-14T05:59:27;33.97;;;14.95;;
77214;SDS011;66210;53.282;9.864;2023-02-14T06:01:54;38.58;;;16.15;;
77214;SDS011;66210;53.282;9.864;2023-02-14T06:04:21;38.03;;;15.75;;
77214;SDS011;66210;53.282;9.864;2023-02-14T06:06:47;34.15;;;15.60;;
77214;SDS011;66210;53.282;9.864;2023-02-14T06:09:14;35.78;;;14.50;;
77214;SDS011;66210;53.282;9.864;2023-02-14T06:11:41;35.65;;;15.00;;
77214;SDS011;66210;53.282;9.864;2023-02-14T06:14:08;36.72;;;15.23;;
77214;SDS011;66210;53.282;9.864;2023-02-14T06:16:34;33.25;;;13.48;;
77214;SDS011;66210;53.282;9.864;2023-02-14T06:19:01;34.28;;;14.25;;
77214;SDS011;66210;53.282;9.864;2023-02-14T06:21:28;36.80;;;15.07;;
77214;SDS011;66210;53.282;9.864;2023-02-14T06:23:55;36.78;;;15.45;;
77214;SDS011;66210;53.282;9.864;2023-02-14T06:26:22;32.90;;;14.20;;
77214;SDS011;66210;53.282;9.864;2023-02-14T06:28:54;37.67;;;15.75;;
77214;SDS011;66210;53.282;9.864;2023-02-14T06:31:21;35.28;;;14.50;;
77214;SDS011;66210;53.282;9.864;2023-02-14T06:33:49;34.75;;;15.23;;
77214;SDS011;66210;53.282;9.864;2023-02-14T06:36:16;33.92;;;14.95;;
77214;SDS011;66210;53.282;9.864;2023-02-14T06:38:43;29.60;;;13.48;;
77214;SDS011;66210;53.282;9.864;2023-02-14T06:41:10;33.88;;;14.68;;
77214;SDS011;66210;53.282;9.864;2023-02-14T06:43:37;38.30;;;14.93;;
77214;SDS011;66210;53.282;9.864;2023-02-14T06:46:04;39.28;;;16.05;;
77214;SDS011;66210;53.282;9.864;2023-02-14T06:48:31;36.13;;;15.20;;
77214;SDS011;66210;53.282;9.864;2023-02-14T06:50:58;29.63;;;12.07;;
77214;SDS011;66210;53.282;9.864;2023-02-14T06:53:25;32.08;;;14.52;;
77214;SDS011;66210;53.282;9.864;2023-02-14T06:55:52;29.13;;;12.85;;
77214;SDS011;66210;53.282;9.864;2023-02-14T06:58:19;30.65;;;13.75;;
77214;SDS011;66210;53.282;9.864;2023-02-14T07:00:46;34.33;;;14.27;;
77214;SDS011;66210;53.282;9.864;2023-02-14T07:03:13;31.38;;;13.52;;
77214;SDS011;66210;53.282;9.864;2023-02-14T07:05:39;30.70;;;13.30;;
77214;SDS011;66210;53.282;9.864;2023-02-14T07:08:06;28.08;;;12.57;;
77214;SDS011;66210;53.282;9.864;2023-02-14T07:10:33;33.05;;;13.15;;
77214;SDS011;66210;53.282;9.864;2023-02-14T07:13:00;36.00;;;14.35;;
77214;SDS011;66210;53.282;9.864;2023-02-14T07:15:27;32.58;;;14.45;;
77214;SDS011;66210;53.282;9.864;2023-02-14T07:17:54;28.35;;;13.13;;
77214;SDS011;66210;53.282;9.864;2023-02-14T07:20:21;35.17;;;13.68;;
77214;SDS011;66210;53.282;9.864;2023-02-14T07:22:48;35.03;;;13.82;;
77214;SDS011;66210;53.282;9.864;2023-02-14T07:25:14;32.35;;;15.32;;
77214;SDS011;66210;53.282;9.864;2023-02-14T07:27:42;34.83;;;15.25;;
77214;SDS011;66210;53.282;9.864;2023-02-14T07:30:10;34.20;;;14.73;;
77214;SDS011;66210;53.282;9.864;2023-02-14T07:32:37;30.35;;;14.18;;
77214;SDS011;66210;53.282;9.864;2023-02-14T07:35:05;32.22;;;14.13;;
77214;SDS011;66210;53.282;9.864;2023-02-14T07:37:33;27.63;;;13.35;;
77214;SDS011;66210;53.282;9.864;2023-02-14T07:40:00;34.15;;;14.70;;
77214;SDS011;66210;53.282;9.864;2023-02-14T07:42:27;29.92;;;13.85;;
77214;SDS011;66210;53.282;9.864;2023-02-14T07:44:54;28.85;;;13.20;;
77214;SDS011;66210;53.282;9.864;2023-02-14T07:47:21;29.88;;;13.52;;
77214;SDS011;66210;53.282;9.864;2023-02-14T07:49:47;26.63;;;12.10;;
77214;SDS011;66210;53.282;9.864;2023-02-14T07:52:14;30.17;;;13.60;;
77214;SDS011;66210;53.282;9.864;2023-02-14T07:54:41;33.25;;;12.07;;
77214;SDS011;66210;53.282;9.864;2023-02-14T07:57:07;30.30;;;13.32;;
77214;SDS011;66210;53.282;9.864;2023-02-14T07:59:34;29.85;;;13.38;;
77214;SDS011;66210;53.282;9.864;2023-02-14T08:02:01;30.25;;;14.02;;
77214;SDS011;66210;53.282;9.864;2023-02-14T08:04:28;29.90;;;13.82;;
77214;SDS011;66210;53.282;9.864;2023-02-14T08:06:56;33.63;;;13.10;;
77214;SDS011;66210;53.282;9.864;2023-02-14T08:09:23;36.88;;;14.93;;
77214;SDS011;66210;53.282;9.864;2023-02-14T08:11:50;41.00;;;16.85;;
77214;SDS011;66210;53.282;9.864;2023-02-14T08:14:40;39.78;;;15.77;;
77214;SDS011;66210;53.282;9.864;2023-02-14T08:17:08;34.42;;;14.02;;
77214;SDS011;66210;53.282;9.864;2023-02-14T08:19:35;39.53;;;15.68;;
77214;SDS011;66210;53.282;9.864;2023-02-14T08:22:03;40.38;;;16.20;;
77214;SDS011;66210;53.282;9.864;2023-02-14T08:24:30;35.40;;;15.13;;
77214;SDS011;66210;53.282;9.864;2023-02-14T08:26:57;33.95;;;14.82;;
77214;SDS011;66210;53.282;9.864;2023-02-14T08:29:24;34.58;;;15.32;;
77214;SDS011;66210;53.282;9.864;2023-02-14T08:31:51;37.50;;;15.90;;
77214;SDS011;66210;53.282;9.864;2023-02-14T08:34:19;37.47;;;15.15;;
77214;SDS011;66210;53.282;9.864;2023-02-14T08:36:45;35.63;;;15.18;;
77214;SDS011;66210;53.282;9.864;2023-02-14T08:39:13;35.80;;;15.85;;
77214;SDS011;66210;53.282;9.864;2023-02-14T08:41:40;33.15;;;15.07;;
77214;SDS011;66210;53.282;9.864;2023-02-14T08:44:06;36.58;;;15.23;;
77214;SDS011;66210;53.282;9.864;2023-02-14T08:46:33;37.67;;;14.43;;
77214;SDS011;66210;53.282;9.864;2023-02-14T08:49:00;36.65;;;15.32;;
77214;SDS011;66210;53.282;9.864;2023-02-14T08:51:27;35.78;;;15.27;;
77214;SDS011;66210;53.282;9.864;2023-02-14T08:53:53;37.17;;;15.15;;
77214;SDS011;66210;53.282;9.864;2023-02-14T08:56:21;40.15;;;15.85;;
77214;SDS011;66210;53.282;9.864;2023-02-14T08:58:50;38.17;;;16.17;;
77214;SDS011;66210;53.282;9.864;2023-02-14T09:01:18;34.70;;;15.80;;
77214;SDS011;66210;53.282;9.864;2023-02-14T09:03:45;37.25;;;16.13;;
77214;SDS011;66210;53.282;9.864;2023-02-14T09:06:13;32.03;;;14.63;;
77214;SDS011;66210;53.282;9.864;2023-02-14T09:08:43;35.20;;;14.93;;
77214;SDS011;66210;53.282;9.864;2023-02-14T09:11:17;30.80;;;14.50;;
77214;SDS011;66210;53.282;9.864;2023-02-14T09:13:47;29.55;;;13.73;;
77214;SDS011;66210;53.282;9.864;2023-02-14T09:16:16;26.08;;;13.23;;
77214;SDS011;66210;53.282;9.864;2023-02-14T09:18:44;29.48;;;13.80;;
77214;SDS011;66210;53.282;9.864;2023-02-14T09:21:13;27.52;;;13.13;;
77214;SDS011;66210;53.282;9.864;2023-02-14T09:23:41;25.35;;;12.73;;
77214;SDS011;66210;53.282;9.864;2023-02-14T09:26:09;24.58;;;12.77;;
77214;SDS011;66210;53.282;9.864;2023-02-14T09:28:37;26.75;;;12.23;;
77214;SDS011;66210;53.282;9.864;2023-02-14T09:31:11;28.88;;;13.02;;
77214;SDS011;66210;53.282;9.864;2023-02-14T09:33:41;23.90;;;12.50;;
77214;SDS011;66210;53.282;9.864;2023-02-14T09:36:09;30.00;;;13.65;;
77214;SDS011;66210;53.282;9.864;2023-02-14T09:38:38;26.65;;;12.70;;
77214;SDS011;66210;53.282;9.864;2023-02-14T09:41:06;28.00;;;13.50;;
77214;SDS011;66210;53.282;9.864;2023-02-14T09:46:12;28.77;;;13.43;;
77214;SDS011;66210;53.282;9.864;2023-02-14T09:48:42;27.02;;;14.15;;
77214;SDS011;66210;53.282;9.864;2023-02-14T09:51:16;31.35;;;13.88;;
77214;SDS011;66210;53.282;9.864;2023-02-14T09:53:47;27.48;;;13.90;;
77214;SDS011;66210;53.282;9.864;2023-02-14T09:56:23;25.92;;;13.18;;
77214;SDS011;66210;53.282;9.864;2023-02-14T09:59:06;26.17;;;13.73;;
77214;SDS011;66210;53.282;9.864;2023-02-14T10:01:41;26.77;;;13.45;;
77214;SDS011;66210;53.282;9.864;2023-02-14T10:07:06;29.52;;;14.48;;
77214;SDS011;66210;53.282;9.864;2023-02-14T10:12:26;27.13;;;12.60;;
77214;SDS011;66210;53.282;9.864;2023-02-14T10:14:58;25.98;;;13.75;;
77214;SDS011;66210;53.282;9.864;2023-02-14T10:17:39;28.92;;;13.48;;
77214;SDS011;66210;53.282;9.864;2023-02-14T10:20:15;24.98;;;12.32;;
77214;SDS011;66210;53.282;9.864;2023-02-14T10:22:49;27.83;;;13.32;;
77214;SDS011;66210;53.282;9.864;2023-02-14T10:25:23;24.80;;;13.02;;
77214;SDS011;66210;53.282;9.864;2023-02-14T10:27:55;24.73;;;12.25;;
77214;SDS011;66210;53.282;9.864;2023-02-14T10:30:23;28.60;;;13.30;;
77214;SDS011;66210;53.282;9.864;2023-02-14T10:35:38;22.85;;;11.65;;
77214;SDS011;66210;53.282;9.864;2023-02-14T10:44:13;21.52;;;12.10;;
77214;SDS011;66210;53.282;9.864;2023-02-14T10:47:09;20.50;;;11.27;;
77214;SDS011;66210;53.282;9.864;2023-02-14T10:52:17;25.33;;;12.25;;
77214;SDS011;66210;53.282;9.864;2023-02-14T10:54:54;22.48;;;11.98;;
77214;SDS011;66210;53.282;9.864;2023-02-14T10:57:31;20.98;;;10.82;;
77214;SDS011;66210;53.282;9.864;2023-02-14T11:00:05;24.83;;;12.07;;
77214;SDS011;66210;53.282;9.864;2023-02-14T11:02:37;23.13;;;11.48;;
77214;SDS011;66210;53.282;9.864;2023-02-14T11:05:19;20.50;;;11.43;;
77214;SDS011;66210;53.282;9.864;2023-02-14T11:07:50;21.13;;;11.32;;
77214;SDS011;66210;53.282;9.864;2023-02-14T11:10:19;21.35;;;11.48;;
77214;SDS011;66210;53.282;9.864;2023-02-14T11:12:51;23.73;;;11.68;;
77214;SDS011;66210;53.282;9.864;2023-02-14T11:15:23;22.70;;;12.10;;
77214;SDS011;66210;53.282;9.864;2023-02-14T11:18:06;20.63;;;10.98;;
77214;SDS011;66210;53.282;9.864;2023-02-14T11:23:33;19.10;;;10.43;;
77214;SDS011;66210;53.282;9.864;2023-02-14T11:26:02;20.83;;;11.13;;
77214;SDS011;66210;53.282;9.864;2023-02-14T11:28:33;21.90;;;11.00;;
77214;SDS011;66210;53.282;9.864;2023-02-14T11:31:00;21.88;;;11.93;;
77214;SDS011;66210;53.282;9.864;2023-02-14T11:33:38;21.15;;;11.35;;
77214;SDS011;66210;53.282;9.864;2023-02-14T11:36:11;19.10;;;10.40;;
77214;SDS011;66210;53.282;9.864;2023-02-14T11:38:40;20.27;;;11.10;;
77214;SDS011;66210;53.282;9.864;2023-02-14T11:41:10;20.15;;;10.70;;
77214;SDS011;66210;53.282;9.864;2023-02-14T11:43:41;20.10;;;11.27;;
77214;SDS011;66210;53.282;9.864;2023-02-14T11:46:14;20.58;;;10.10;;
77214;SDS011;66210;53.282;9.864;2023-02-14T11:48:57;21.10;;;11.63;;
77214;SDS011;66210;53.282;9.864;2023-02-14T11:51:33;24.30;;;11.07;;
77214;SDS011;66210;53.282;9.864;2023-02-14T11:54:02;23.20;;;11.85;;
77214;SDS011;66210;53.282;9.864;2023-02-14T11:56:44;21.67;;;11.32;;
77214;SDS011;66210;53.282;9.864;2023-02-14T11:59:23;19.10;;;10.77;;
77214;SDS011;66210;53.282;9.864;2023-02-14T12:01:53;19.05;;;10.32;;
77214;SDS011;66210;53.282;9.864;2023-02-14T12:04:23;17.33;;;9.50;;
77214;SDS011;66210;53.282;9.864;2023-02-14T12:07:12;17.60;;;10.05;;
77214;SDS011;66210;53.282;9.864;2023-02-14T12:09:42;20.50;;;10.43;;
77214;SDS011;66210;53.282;9.864;2023-02-14T12:12:17;20.27;;;10.25;;
77214;SDS011;66210;53.282;9.864;2023-02-14T12:14:46;18.45;;;10.20;;
77214;SDS011;66210;53.282;9.864;2023-02-14T12:17:47;17.83;;;10.05;;
77214;SDS011;66210;53.282;9.864;2023-02-14T12:25:16;21.40;;;10.13;;
77214;SDS011;66210;53.282;9.864;2023-02-14T12:27:50;18.70;;;9.45;;
77214;SDS011;66210;53.282;9.864;2023-02-14T12:30:24;17.15;;;9.23;;
77214;SDS011;66210;53.282;9.864;2023-02-14T12:32:54;19.00;;;9.30;;
77214;SDS011;66210;53.282;9.864;2023-02-14T12:35:38;19.08;;;9.68;;
77214;SDS011;66210;53.282;9.864;2023-02-14T12:38:29;18.48;;;9.27;;
77214;SDS011;66210;53.282;9.864;2023-02-14T12:44:03;17.90;;;9.23;;
77214;SDS011;66210;53.282;9.864;2023-02-14T12:52:32;15.80;;;8.35;;
77214;SDS011;66210;53.282;9.864;2023-02-14T12:55:14;18.58;;;8.18;;
77214;SDS011;66210;53.282;9.864;2023-02-14T12:58:01;15.32;;;8.73;;
77214;SDS011;66210;53.282;9.864;2023-02-14T13:06:40;15.80;;;8.90;;
77214;SDS011;66210;53.282;9.864;2023-02-14T13:15:22;18.20;;;9.55;;
77214;SDS011;66210;53.282;9.864;2023-02-14T13:18:00;19.10;;;10.18;;
77214;SDS011;66210;53.282;9.864;2023-02-14T13:20:43;18.00;;;9.32;;
77214;SDS011;66210;53.282;9.864;2023-02-14T13:23:23;17.90;;;9.10;;
77214;SDS011;66210;53.282;9.864;2023-02-14T13:25:57;19.15;;;9.88;;
77214;SDS011;66210;53.282;9.864;2023-02-14T13:28:29;19.90;;;9.52;;
77214;SDS011;66210;53.282;9.864;2023-02-14T13:30:57;19.60;;;9.63;;
77214;SDS011;66210;53.282;9.864;2023-02-14T13:33:47;21.30;;;9.07;;
77214;SDS011;66210;53.282;9.864;2023-02-14T13:36:18;15.90;;;8.90;;
77214;SDS011;66210;53.282;9.864;2023-02-14T13:38:47;17.70;;;9.15;;
77214;SDS011;66210;53.282;9.864;2023-02-14T13:41:16;30.70;;;13.65;;
77214;SDS011;66210;53.282;9.864;2023-02-14T13:46:12;23.08;;;10.93;;
77214;SDS011;66210;53.282;9.864;2023-02-14T13:48:42;15.85;;;8.82;;
77214;SDS011;66210;53.282;9.864;2023-02-14T13:51:21;16.60;;;9.02;;
77214;SDS011;66210;53.282;9.864;2023-02-14T13:54:27;17.80;;;10.13;;
77214;SDS011;66210;53.282;9.864;2023-02-14T13:57:01;19.60;;;10.05;;
77214;SDS011;66210;53.282;9.864;2023-02-14T13:59:49;18.52;;;9.02;;
77214;SDS011;66210;53.282;9.864;2023-02-14T14:02:50;16.00;;;8.65;;
77214;SDS011;66210;53.282;9.864;2023-02-14T14:10:55;14.82;;;7.35;;
77214;SDS011;66210;53.282;9.864;2023-02-14T14:16:19;15.00;;;9.00;;
77214;SDS011;66210;53.282;9.864;2023-02-14T14:19:09;20.40;;;9.38;;
77214;SDS011;66210;53.282;9.864;2023-02-14T14:22:01;17.40;;;9.40;;
77214;SDS011;66210;53.282;9.864;2023-02-14T14:27:02;17.23;;;9.02;;
77214;SDS011;66210;53.282;9.864;2023-02-14T14:29:36;19.90;;;9.23;;
77214;SDS011;66210;53.282;9.864;2023-02-14T14:32:09;19.73;;;9.02;;
77214;SDS011;66210;53.282;9.864;2023-02-14T14:34:46;14.73;;;8.70;;
77214;SDS011;66210;53.282;9.864;2023-02-14T14:37:16;18.15;;;8.88;;
77214;SDS011;66210;53.282;9.864;2023-02-14T14:42:15;17.38;;;8.65;;
77214;SDS011;66210;53.282;9.864;2023-02-14T14:44:46;19.13;;;9.88;;
77214;SDS011;66210;53.282;9.864;2023-02-14T14:47:23;20.00;;;10.52;;
77214;SDS011;66210;53.282;9.864;2023-02-14T14:49:53;21.38;;;10.68;;
77214;SDS011;66210;53.282;9.864;2023-02-14T14:52:29;17.33;;;9.27;;
77214;SDS011;66210;53.282;9.864;2023-02-14T14:54:59;16.73;;;9.30;;
77214;SDS011;66210;53.282;9.864;2023-02-14T14:57:27;17.42;;;9.13;;
77214;SDS011;66210;53.282;9.864;2023-02-14T15:00:55;19.92;;;9.68;;
77214;SDS011;66210;53.282;9.864;2023-02-14T15:02:55;17.75;;;9.68;;
77214;SDS011;66210;53.282;9.864;2023-02-14T15:05:23;21.00;;;10.07;;
77214;SDS011;66210;53.282;9.864;2023-02-14T15:07:52;22.00;;;10.27;;
77214;SDS011;66210;53.282;9.864;2023-02-14T15:10:20;20.17;;;9.40;;
77214;SDS011;66210;53.282;9.864;2023-02-14T15:12:49;20.35;;;9.88;;
77214;SDS011;66210;53.282;9.864;2023-02-14T15:15:35;21.08;;;9.98;;
77214;SDS011;66210;53.282;9.864;2023-02-14T15:18:03;19.50;;;9.20;;
77214;SDS011;66210;53.282;9.864;2023-02-14T15:20:32;19.13;;;10.18;;
77214;SDS011;66210;53.282;9.864;2023-02-14T15:23:00;23.90;;;10.30;;
77214;SDS011;66210;53.282;9.864;2023-02-14T15:25:30;21.65;;;11.23;;
77214;SDS011;66210;53.282;9.864;2023-02-14T15:27:58;18.83;;;10.73;;
77214;SDS011;66210;53.282;9.864;2023-02-14T15:30:27;20.67;;;10.38;;
77214;SDS011;66210;53.282;9.864;2023-02-14T15:33:00;17.45;;;10.07;;
77214;SDS011;66210;53.282;9.864;2023-02-14T15:35:30;21.70;;;10.65;;
77214;SDS011;66210;53.282;9.864;2023-02-14T15:38:00;19.40;;;10.20;;
77214;SDS011;66210;53.282;9.864;2023-02-14T15:40:30;20.60;;;10.27;;
77214;SDS011;66210;53.282;9.864;2023-02-14T15:43:13;21.73;;;10.63;;
77214;SDS011;66210;53.282;9.864;2023-02-14T15:50:49;19.67;;;9.80;;
77214;SDS011;66210;53.282;9.864;2023-02-14T15:55:45;20.30;;;9.82;;
77214;SDS011;66210;53.282;9.864;2023-02-14T15:58:19;19.23;;;9.25;;
77214;SDS011;66210;53.282;9.864;2023-02-14T16:00:49;19.52;;;10.18;;
77214;SDS011;66210;53.282;9.864;2023-02-14T16:03:18;18.73;;;9.70;;
77214;SDS011;66210;53.282;9.864;2023-02-14T16:05:48;21.13;;;10.75;;
77214;SDS011;66210;53.282;9.864;2023-02-14T16:08:35;21.33;;;10.77;;
77214;SDS011;66210;53.282;9.864;2023-02-14T16:13:41;24.17;;;8.60;;
77214;SDS011;66210;53.282;9.864;2023-02-14T16:16:13;19.63;;;9.05;;
77214;SDS011;66210;53.282;9.864;2023-02-14T16:21:13;21.10;;;9.65;;
77214;SDS011;66210;53.282;9.864;2023-02-14T16:26:33;15.85;;;8.20;;
77214;SDS011;66210;53.282;9.864;2023-02-14T16:29:04;18.58;;;8.65;;
77214;SDS011;66210;53.282;9.864;2023-02-14T16:31:32;20.48;;;8.93;;
77214;SDS011;66210;53.282;9.864;2023-02-14T16:33:59;19.65;;;8.20;;
77214;SDS011;66210;53.282;9.864;2023-02-14T16:36:27;14.50;;;7.55;;
77214;SDS011;66210;53.282;9.864;2023-02-14T16:41:23;15.32;;;8.10;;
77214;SDS011;66210;53.282;9.864;2023-02-14T16:43:53;16.35;;;8.23;;
77214;SDS011;66210;53.282;9.864;2023-02-14T16:46:24;15.32;;;7.85;;
77214;SDS011;66210;53.282;9.864;2023-02-14T16:48:54;13.98;;;8.35;;
77214;SDS011;66210;53.282;9.864;2023-02-14T16:51:26;16.90;;;8.20;;